sensor_id;sensor_type;location;lat;lon;timestamp;P1;durP1;ratioP1;P2;durP2;ratioP2
26516;SDS011;14190;51.342;6.338;2023-04-25T00:02:01;26.02;;;8.00;;
26516;SDS011;14190;51.342;6.338;2023-04-25T00:04:29;33.65;;;7.92;;
26516;SDS011;14190;51.342;6.338;2023-04-25T00:06:58;28.12;;;8.75;;
26516;SDS011;14190;51.342;6.338;2023-04-25T00:09:28;21.30;;;7.87;;
26516;SDS011;14190;51.342;6.338;2023-04-25T00:11:55;24.75;;;8.35;;
26516;SDS011;14190;51.342;6.338;2023-04-25T00:14:23;23.80;;;8.05;;
26516;SDS011;14190;51.342;6.338;2023-04-25T00:16:51;27.02;;;9.45;;
26516;SDS011;14190;51.342;6.338;2023-04-25T00:19:20;20.60;;;8.58;;
26516;SDS011;14190;51.342;6.338;2023-04-25T00:21:47;21.42;;;8.10;;
26516;SDS011;14190;51.342;6.338;2023-04-25T00:24:15;24.30;;;8.93;;
26516;SDS011;14190;51.342;6.338;2023-04-25T00:26:42;30.97;;;8.83;;
26516;SDS011;14190;51.342;6.338;2023-04-25T00:29:10;24.20;;;8.73;;
26516;SDS011;14190;51.342;6.338;2023-04-25T00:31:37;28.38;;;8.20;;
26516;SDS011;14190;51.342;6.338;2023-04-25T00:34:05;21.10;;;7.85;;
26516;SDS011;14190;51.342;6.338;2023-04-25T00:36:34;23.65;;;9.03;;
26516;SDS011;14190;51.342;6.338;2023-04-25T00:39:02;23.87;;;7.78;;
26516;SDS011;14190;51.342;6.338;2023-04-25T00:41:30;27.15;;;8.15;;
26516;SDS011;14190;51.342;6.338;2023-04-25T00:43:58;27.73;;;8.00;;
26516;SDS011;14190;51.342;6.338;2023-04-25T00:46:26;22.37;;;7.87;;
26516;SDS011;14190;51.342;6.338;2023-04-25T00:48:53;22.93;;;8.25;;
26516;SDS011;14190;51.342;6.338;2023-04-25T00:51:21;28.10;;;8.50;;
26516;SDS011;14190;51.342;6.338;2023-04-25T00:53:48;20.90;;;6.85;;
26516;SDS011;14190;51.342;6.338;2023-04-25T00:56:17;21.23;;;7.58;;
26516;SDS011;14190;51.342;6.338;2023-04-25T00:58:44;27.93;;;7.50;;
26516;SDS011;14190;51.342;6.338;2023-04-25T01:01:12;25.08;;;7.08;;
26516;SDS011;14190;51.342;6.338;2023-04-25T01:03:40;21.95;;;7.12;;
26516;SDS011;14190;51.342;6.338;2023-04-25T01:06:12;22.85;;;6.92;;
26516;SDS011;14190;51.342;6.338;2023-04-25T01:08:37;26.37;;;7.10;;
26516;SDS011;14190;51.342;6.338;2023-04-25T01:11:05;26.80;;;7.25;;
26516;SDS011;14190;51.342;6.338;2023-04-25T01:13:33;21.52;;;6.53;;
26516;SDS011;14190;51.342;6.338;2023-04-25T01:16:01;23.02;;;7.55;;
26516;SDS011;14190;51.342;6.338;2023-04-25T01:18:29;25.65;;;7.15;;
26516;SDS011;14190;51.342;6.338;2023-04-25T01:20:56;15.85;;;6.30;;
26516;SDS011;14190;51.342;6.338;2023-04-25T01:23:25;15.88;;;6.60;;
26516;SDS011;14190;51.342;6.338;2023-04-25T01:25:53;18.90;;;7.10;;
26516;SDS011;14190;51.342;6.338;2023-04-25T01:28:21;23.30;;;7.30;;
26516;SDS011;14190;51.342;6.338;2023-04-25T01:30:49;18.98;;;6.30;;
26516;SDS011;14190;51.342;6.338;2023-04-25T01:33:17;17.57;;;6.85;;
26516;SDS011;14190;51.342;6.338;2023-04-25T01:35:47;21.55;;;7.97;;
26516;SDS011;14190;51.342;6.338;2023-04-25T01:38:14;15.88;;;7.30;;
26516;SDS011;14190;51.342;6.338;2023-04-25T01:40:41;17.57;;;7.15;;
26516;SDS011;14190;51.342;6.338;2023-04-25T01:43:10;17.62;;;6.53;;
26516;SDS011;14190;51.342;6.338;2023-04-25T01:45:39;29.00;;;7.75;;
26516;SDS011;14190;51.342;6.338;2023-04-25T01:48:09;18.00;;;6.62;;
26516;SDS011;14190;51.342;6.338;2023-04-25T01:50:37;16.60;;;7.12;;
26516;SDS011;14190;51.342;6.338;2023-04-25T01:53:05;21.27;;;6.80;;
26516;SDS011;14190;51.342;6.338;2023-04-25T01:55:33;16.35;;;7.35;;
26516;SDS011;14190;51.342;6.338;2023-04-25T01:58:05;20.20;;;7.22;;
26516;SDS011;14190;51.342;6.338;2023-04-25T02:00:38;19.25;;;7.08;;
26516;SDS011;14190;51.342;6.338;2023-04-25T02:03:07;24.95;;;6.85;;
26516;SDS011;14190;51.342;6.338;2023-04-25T02:05:35;21.90;;;6.58;;
26516;SDS011;14190;51.342;6.338;2023-04-25T02:08:07;24.75;;;8.38;;
26516;SDS011;14190;51.342;6.338;2023-04-25T02:10:35;18.90;;;7.87;;
26516;SDS011;14190;51.342;6.338;2023-04-25T02:13:10;19.95;;;8.03;;
26516;SDS011;14190;51.342;6.338;2023-04-25T02:15:42;21.65;;;7.78;;
26516;SDS011;14190;51.342;6.338;2023-04-25T02:18:12;23.22;;;7.87;;
26516;SDS011;14190;51.342;6.338;2023-04-25T02:20:41;24.07;;;7.22;;
26516;SDS011;14190;51.342;6.338;2023-04-25T02:23:09;25.23;;;7.42;;
26516;SDS011;14190;51.342;6.338;2023-04-25T02:25:36;24.23;;;7.75;;
26516;SDS011;14190;51.342;6.338;2023-04-25T02:28:04;24.20;;;8.05;;
26516;SDS011;14190;51.342;6.338;2023-04-25T02:30:31;19.75;;;7.85;;
26516;SDS011;14190;51.342;6.338;2023-04-25T02:32:59;32.20;;;8.95;;
26516;SDS011;14190;51.342;6.338;2023-04-25T02:35:26;24.92;;;8.03;;
26516;SDS011;14190;51.342;6.338;2023-04-25T02:37:53;34.15;;;7.90;;
26516;SDS011;14190;51.342;6.338;2023-04-25T02:40:21;23.05;;;7.25;;
26516;SDS011;14190;51.342;6.338;2023-04-25T02:42:48;27.20;;;7.20;;
26516;SDS011;14190;51.342;6.338;2023-04-25T02:45:17;25.97;;;8.60;;
26516;SDS011;14190;51.342;6.338;2023-04-25T02:47:45;24.30;;;8.10;;
26516;SDS011;14190;51.342;6.338;2023-04-25T02:50:12;26.73;;;6.85;;
26516;SDS011;14190;51.342;6.338;2023-04-25T02:52:40;22.75;;;7.83;;
26516;SDS011;14190;51.342;6.338;2023-04-25T02:55:09;22.73;;;8.28;;
26516;SDS011;14190;51.342;6.338;2023-04-25T02:57:37;25.25;;;7.67;;
26516;SDS011;14190;51.342;6.338;2023-04-25T03:00:05;29.12;;;7.95;;
26516;SDS011;14190;51.342;6.338;2023-04-25T03:02:33;26.85;;;8.60;;
26516;SDS011;14190;51.342;6.338;2023-04-25T03:05:01;23.02;;;8.90;;
26516;SDS011;14190;51.342;6.338;2023-04-25T03:07:29;24.45;;;7.75;;
26516;SDS011;14190;51.342;6.338;2023-04-25T03:09:56;22.42;;;8.28;;
26516;SDS011;14190;51.342;6.338;2023-04-25T03:12:24;26.52;;;8.48;;
26516;SDS011;14190;51.342;6.338;2023-04-25T03:14:52;32.00;;;7.97;;
26516;SDS011;14190;51.342;6.338;2023-04-25T03:17:20;19.25;;;7.55;;
26516;SDS011;14190;51.342;6.338;2023-04-25T03:19:48;27.52;;;9.38;;
26516;SDS011;14190;51.342;6.338;2023-04-25T03:22:16;30.90;;;8.08;;
26516;SDS011;14190;51.342;6.338;2023-04-25T03:24:43;26.35;;;8.50;;
26516;SDS011;14190;51.342;6.338;2023-04-25T03:27:11;30.90;;;9.28;;
26516;SDS011;14190;51.342;6.338;2023-04-25T03:29:38;26.12;;;8.90;;
26516;SDS011;14190;51.342;6.338;2023-04-25T03:32:08;30.10;;;8.58;;
26516;SDS011;14190;51.342;6.338;2023-04-25T03:34:35;31.52;;;9.08;;
26516;SDS011;14190;51.342;6.338;2023-04-25T03:37:03;26.65;;;8.65;;
26516;SDS011;14190;51.342;6.338;2023-04-25T03:39:32;22.55;;;8.38;;
26516;SDS011;14190;51.342;6.338;2023-04-25T03:41:59;33.83;;;9.23;;
26516;SDS011;14190;51.342;6.338;2023-04-25T03:44:27;23.12;;;8.03;;
26516;SDS011;14190;51.342;6.338;2023-04-25T03:46:55;25.70;;;7.87;;
26516;SDS011;14190;51.342;6.338;2023-04-25T03:49:22;28.62;;;8.58;;
26516;SDS011;14190;51.342;6.338;2023-04-25T03:51:54;26.07;;;8.45;;
26516;SDS011;14190;51.342;6.338;2023-04-25T03:54:22;34.33;;;9.38;;
26516;SDS011;14190;51.342;6.338;2023-04-25T03:56:51;32.13;;;8.55;;
26516;SDS011;14190;51.342;6.338;2023-04-25T03:59:20;27.62;;;8.13;;
26516;SDS011;14190;51.342;6.338;2023-04-25T04:01:47;27.98;;;8.18;;
26516;SDS011;14190;51.342;6.338;2023-04-25T04:04:15;30.80;;;9.30;;
26516;SDS011;14190;51.342;6.338;2023-04-25T04:06:43;30.62;;;9.78;;
26516;SDS011;14190;51.342;6.338;2023-04-25T04:09:15;32.42;;;8.03;;
26516;SDS011;14190;51.342;6.338;2023-04-25T04:11:43;34.67;;;9.13;;
26516;SDS011;14190;51.342;6.338;2023-04-25T04:14:11;38.38;;;9.58;;
26516;SDS011;14190;51.342;6.338;2023-04-25T04:16:40;26.95;;;8.33;;
26516;SDS011;14190;51.342;6.338;2023-04-25T04:19:08;21.68;;;8.38;;
26516;SDS011;14190;51.342;6.338;2023-04-25T04:21:36;34.08;;;9.10;;
26516;SDS011;14190;51.342;6.338;2023-04-25T04:24:04;27.30;;;8.95;;
26516;SDS011;14190;51.342;6.338;2023-04-25T04:26:33;36.60;;;8.50;;
26516;SDS011;14190;51.342;6.338;2023-04-25T04:29:20;24.67;;;7.30;;
26516;SDS011;14190;51.342;6.338;2023-04-25T04:32:08;32.48;;;8.60;;
26516;SDS011;14190;51.342;6.338;2023-04-25T04:34:35;25.45;;;8.05;;
26516;SDS011;14190;51.342;6.338;2023-04-25T04:37:03;29.37;;;9.25;;
26516;SDS011;14190;51.342;6.338;2023-04-25T04:39:31;40.90;;;9.48;;
26516;SDS011;14190;51.342;6.338;2023-04-25T04:42:03;30.68;;;8.63;;
26516;SDS011;14190;51.342;6.338;2023-04-25T04:44:33;30.20;;;7.25;;
26516;SDS011;14190;51.342;6.338;2023-04-25T04:47:15;28.65;;;8.73;;
26516;SDS011;14190;51.342;6.338;2023-04-25T04:50:01;32.65;;;8.78;;
26516;SDS011;14190;51.342;6.338;2023-04-25T04:52:46;26.80;;;8.08;;
26516;SDS011;14190;51.342;6.338;2023-04-25T04:55:34;28.02;;;9.28;;
26516;SDS011;14190;51.342;6.338;2023-04-25T04:58:07;28.40;;;7.90;;
26516;SDS011;14190;51.342;6.338;2023-04-25T05:00:55;34.85;;;8.03;;
26516;SDS011;14190;51.342;6.338;2023-04-25T05:03:36;37.08;;;9.95;;
26516;SDS011;14190;51.342;6.338;2023-04-25T05:06:08;29.92;;;8.98;;
26516;SDS011;14190;51.342;6.338;2023-04-25T05:08:53;25.70;;;8.13;;
26516;SDS011;14190;51.342;6.338;2023-04-25T05:11:29;35.40;;;8.95;;
26516;SDS011;14190;51.342;6.338;2023-04-25T05:13:58;36.13;;;9.23;;
26516;SDS011;14190;51.342;6.338;2023-04-25T05:16:27;23.75;;;9.98;;
26516;SDS011;14190;51.342;6.338;2023-04-25T05:18:56;31.15;;;8.05;;
26516;SDS011;14190;51.342;6.338;2023-04-25T05:21:28;24.30;;;9.23;;
26516;SDS011;14190;51.342;6.338;2023-04-25T05:24:00;25.92;;;8.48;;
26516;SDS011;14190;51.342;6.338;2023-04-25T05:26:47;37.23;;;8.68;;
26516;SDS011;14190;51.342;6.338;2023-04-25T05:29:29;30.10;;;8.23;;
26516;SDS011;14190;51.342;6.338;2023-04-25T05:32:04;28.73;;;8.00;;
26516;SDS011;14190;51.342;6.338;2023-04-25T05:34:32;29.77;;;7.78;;
26516;SDS011;14190;51.342;6.338;2023-04-25T05:37:01;23.00;;;7.55;;
26516;SDS011;14190;51.342;6.338;2023-04-25T05:39:29;31.97;;;7.60;;
26516;SDS011;14190;51.342;6.338;2023-04-25T05:42:17;24.07;;;7.53;;
26516;SDS011;14190;51.342;6.338;2023-04-25T05:45:02;24.90;;;7.12;;
26516;SDS011;14190;51.342;6.338;2023-04-25T05:47:32;27.13;;;7.65;;
26516;SDS011;14190;51.342;6.338;2023-04-25T05:50:07;21.62;;;6.70;;
26516;SDS011;14190;51.342;6.338;2023-04-25T05:52:52;20.82;;;7.55;;
26516;SDS011;14190;51.342;6.338;2023-04-25T05:55:36;31.42;;;8.38;;
26516;SDS011;14190;51.342;6.338;2023-04-25T05:58:06;32.33;;;7.83;;
26516;SDS011;14190;51.342;6.338;2023-04-25T06:00:33;35.17;;;7.67;;
26516;SDS011;14190;51.342;6.338;2023-04-25T06:03:01;34.03;;;8.68;;
26516;SDS011;14190;51.342;6.338;2023-04-25T06:05:28;32.40;;;8.50;;
26516;SDS011;14190;51.342;6.338;2023-04-25T06:07:56;33.33;;;8.48;;
26516;SDS011;14190;51.342;6.338;2023-04-25T06:10:23;43.20;;;9.40;;
26516;SDS011;14190;51.342;6.338;2023-04-25T06:12:51;17.50;;;7.17;;
26516;SDS011;14190;51.342;6.338;2023-04-25T06:15:18;28.90;;;8.80;;
26516;SDS011;14190;51.342;6.338;2023-04-25T06:17:46;30.75;;;9.75;;
26516;SDS011;14190;51.342;6.338;2023-04-25T06:20:13;34.45;;;9.08;;
26516;SDS011;14190;51.342;6.338;2023-04-25T06:22:41;34.50;;;8.73;;
26516;SDS011;14190;51.342;6.338;2023-04-25T06:25:09;31.95;;;9.08;;
26516;SDS011;14190;51.342;6.338;2023-04-25T06:27:36;23.95;;;8.58;;
26516;SDS011;14190;51.342;6.338;2023-04-25T06:30:04;31.10;;;8.33;;
26516;SDS011;14190;51.342;6.338;2023-04-25T06:32:33;25.95;;;8.95;;
26516;SDS011;14190;51.342;6.338;2023-04-25T06:35:00;31.87;;;8.75;;
26516;SDS011;14190;51.342;6.338;2023-04-25T06:37:28;21.62;;;8.25;;
26516;SDS011;14190;51.342;6.338;2023-04-25T06:39:55;25.70;;;8.58;;
26516;SDS011;14190;51.342;6.338;2023-04-25T06:42:23;30.43;;;7.58;;
26516;SDS011;14190;51.342;6.338;2023-04-25T06:44:54;25.45;;;6.87;;
26516;SDS011;14190;51.342;6.338;2023-04-25T06:47:22;30.90;;;6.90;;
26516;SDS011;14190;51.342;6.338;2023-04-25T06:49:49;31.10;;;6.05;;
26516;SDS011;14190;51.342;6.338;2023-04-25T06:52:17;22.35;;;6.22;;
26516;SDS011;14190;51.342;6.338;2023-04-25T06:54:46;23.07;;;5.95;;
26516;SDS011;14190;51.342;6.338;2023-04-25T06:57:30;21.35;;;6.42;;
26516;SDS011;14190;51.342;6.338;2023-04-25T07:00:00;20.40;;;5.92;;
26516;SDS011;14190;51.342;6.338;2023-04-25T07:02:27;30.20;;;6.78;;
26516;SDS011;14190;51.342;6.338;2023-04-25T07:04:54;28.30;;;6.72;;
26516;SDS011;14190;51.342;6.338;2023-04-25T07:07:23;22.73;;;6.05;;
26516;SDS011;14190;51.342;6.338;2023-04-25T07:09:52;24.98;;;6.20;;
26516;SDS011;14190;51.342;6.338;2023-04-25T07:12:21;30.97;;;6.72;;
26516;SDS011;14190;51.342;6.338;2023-04-25T07:14:51;25.70;;;7.10;;
26516;SDS011;14190;51.342;6.338;2023-04-25T07:17:20;27.85;;;7.22;;
26516;SDS011;14190;51.342;6.338;2023-04-25T07:19:48;27.32;;;6.92;;
26516;SDS011;14190;51.342;6.338;2023-04-25T07:22:16;23.47;;;7.17;;
26516;SDS011;14190;51.342;6.338;2023-04-25T07:24:43;28.57;;;5.60;;
26516;SDS011;14190;51.342;6.338;2023-04-25T07:27:13;14.65;;;5.10;;
26516;SDS011;14190;51.342;6.338;2023-04-25T07:29:42;24.83;;;5.70;;
26516;SDS011;14190;51.342;6.338;2023-04-25T07:32:09;22.27;;;5.90;;
26516;SDS011;14190;51.342;6.338;2023-04-25T07:34:38;18.27;;;5.15;;
26516;SDS011;14190;51.342;6.338;2023-04-25T07:37:06;23.40;;;5.67;;
26516;SDS011;14190;51.342;6.338;2023-04-25T07:39:35;19.90;;;5.42;;
26516;SDS011;14190;51.342;6.338;2023-04-25T07:42:03;17.85;;;5.60;;
26516;SDS011;14190;51.342;6.338;2023-04-25T07:44:32;15.13;;;5.10;;
26516;SDS011;14190;51.342;6.338;2023-04-25T07:47:01;23.10;;;5.30;;
26516;SDS011;14190;51.342;6.338;2023-04-25T07:49:29;32.33;;;5.12;;
26516;SDS011;14190;51.342;6.338;2023-04-25T07:51:57;29.80;;;6.35;;
26516;SDS011;14190;51.342;6.338;2023-04-25T07:54:26;18.30;;;5.67;;
26516;SDS011;14190;51.342;6.338;2023-04-25T07:56:55;19.40;;;5.33;;
26516;SDS011;14190;51.342;6.338;2023-04-25T07:59:24;23.12;;;4.33;;
26516;SDS011;14190;51.342;6.338;2023-04-25T08:01:51;26.35;;;5.62;;
26516;SDS011;14190;51.342;6.338;2023-04-25T08:04:21;17.95;;;4.33;;
26516;SDS011;14190;51.342;6.338;2023-04-25T08:06:53;15.53;;;4.42;;
26516;SDS011;14190;51.342;6.338;2023-04-25T08:09:22;20.90;;;4.60;;
26516;SDS011;14190;51.342;6.338;2023-04-25T08:11:51;28.02;;;5.12;;
26516;SDS011;14190;51.342;6.338;2023-04-25T08:14:20;20.00;;;4.60;;
26516;SDS011;14190;51.342;6.338;2023-04-25T08:16:47;19.15;;;4.83;;
26516;SDS011;14190;51.342;6.338;2023-04-25T08:19:15;17.60;;;4.25;;
26516;SDS011;14190;51.342;6.338;2023-04-25T08:21:42;18.07;;;4.25;;
26516;SDS011;14190;51.342;6.338;2023-04-25T08:24:11;18.95;;;4.20;;
26516;SDS011;14190;51.342;6.338;2023-04-25T08:26:39;29.10;;;5.37;;
26516;SDS011;14190;51.342;6.338;2023-04-25T08:29:08;19.40;;;4.92;;
26516;SDS011;14190;51.342;6.338;2023-04-25T08:31:37;22.32;;;5.00;;
26516;SDS011;14190;51.342;6.338;2023-04-25T08:34:05;17.92;;;5.22;;
26516;SDS011;14190;51.342;6.338;2023-04-25T08:36:34;24.05;;;5.72;;
26516;SDS011;14190;51.342;6.338;2023-04-25T08:39:02;13.58;;;3.95;;
26516;SDS011;14190;51.342;6.338;2023-04-25T08:41:29;13.58;;;4.87;;
26516;SDS011;14190;51.342;6.338;2023-04-25T08:43:57;18.95;;;4.15;;
26516;SDS011;14190;51.342;6.338;2023-04-25T08:46:26;12.18;;;3.87;;
26516;SDS011;14190;51.342;6.338;2023-04-25T08:48:56;17.05;;;3.72;;
26516;SDS011;14190;51.342;6.338;2023-04-25T08:51:24;12.93;;;3.40;;
26516;SDS011;14190;51.342;6.338;2023-04-25T08:53:54;18.27;;;3.62;;
26516;SDS011;14190;51.342;6.338;2023-04-25T08:56:23;15.38;;;3.47;;
26516;SDS011;14190;51.342;6.338;2023-04-25T08:58:51;13.15;;;3.47;;
26516;SDS011;14190;51.342;6.338;2023-04-25T09:01:19;12.33;;;2.90;;
26516;SDS011;14190;51.342;6.338;2023-04-25T09:03:48;12.07;;;2.92;;
26516;SDS011;14190;51.342;6.338;2023-04-25T09:06:17;13.50;;;2.52;;
26516;SDS011;14190;51.342;6.338;2023-04-25T09:08:44;15.88;;;3.45;;
26516;SDS011;14190;51.342;6.338;2023-04-25T09:11:12;10.03;;;3.00;;
26516;SDS011;14190;51.342;6.338;2023-04-25T09:13:41;10.58;;;2.60;;
26516;SDS011;14190;51.342;6.338;2023-04-25T09:16:19;23.73;;;3.25;;
26516;SDS011;14190;51.342;6.338;2023-04-25T09:18:53;9.88;;;2.25;;
26516;SDS011;14190;51.342;6.338;2023-04-25T09:21:21;14.07;;;3.05;;
26516;SDS011;14190;51.342;6.338;2023-04-25T09:23:49;8.50;;;2.20;;
26516;SDS011;14190;51.342;6.338;2023-04-25T09:26:19;11.18;;;2.83;;
26516;SDS011;14190;51.342;6.338;2023-04-25T09:28:47;10.82;;;2.80;;
26516;SDS011;14190;51.342;6.338;2023-04-25T09:31:22;10.60;;;2.65;;
26516;SDS011;14190;51.342;6.338;2023-04-25T09:34:00;15.85;;;3.70;;
26516;SDS011;14190;51.342;6.338;2023-04-25T09:36:29;16.62;;;3.12;;
26516;SDS011;14190;51.342;6.338;2023-04-25T09:39:04;12.85;;;2.95;;
26516;SDS011;14190;51.342;6.338;2023-04-25T09:41:37;16.17;;;3.17;;
26516;SDS011;14190;51.342;6.338;2023-04-25T09:44:03;12.93;;;2.95;;
26516;SDS011;14190;51.342;6.338;2023-04-25T09:46:33;8.93;;;3.20;;
26516;SDS011;14190;51.342;6.338;2023-04-25T09:49:07;11.65;;;2.62;;
26516;SDS011;14190;51.342;6.338;2023-04-25T09:51:39;9.25;;;2.80;;
26516;SDS011;14190;51.342;6.338;2023-04-25T09:54:08;8.88;;;2.87;;
26516;SDS011;14190;51.342;6.338;2023-04-25T09:56:37;11.40;;;2.60;;
26516;SDS011;14190;51.342;6.338;2023-04-25T09:59:06;14.63;;;3.00;;
26516;SDS011;14190;51.342;6.338;2023-04-25T10:01:36;15.75;;;2.65;;
26516;SDS011;14190;51.342;6.338;2023-04-25T10:04:06;12.37;;;2.22;;
26516;SDS011;14190;51.342;6.338;2023-04-25T10:06:39;8.85;;;2.77;;
26516;SDS011;14190;51.342;6.338;2023-04-25T10:09:09;14.87;;;3.02;;
26516;SDS011;14190;51.342;6.338;2023-04-25T10:11:38;11.73;;;2.72;;
26516;SDS011;14190;51.342;6.338;2023-04-25T10:14:06;13.18;;;2.98;;
26516;SDS011;14190;51.342;6.338;2023-04-25T10:16:34;8.63;;;2.55;;
26516;SDS011;14190;51.342;6.338;2023-04-25T10:19:02;12.78;;;2.33;;
26516;SDS011;14190;51.342;6.338;2023-04-25T10:21:29;8.90;;;2.87;;
26516;SDS011;14190;51.342;6.338;2023-04-25T10:23:58;17.15;;;2.60;;
26516;SDS011;14190;51.342;6.338;2023-04-25T10:26:26;12.75;;;2.80;;
26516;SDS011;14190;51.342;6.338;2023-04-25T10:29:00;11.25;;;2.50;;
26516;SDS011;14190;51.342;6.338;2023-04-25T10:31:29;6.33;;;2.58;;
26516;SDS011;14190;51.342;6.338;2023-04-25T10:33:57;11.95;;;3.08;;
26516;SDS011;14190;51.342;6.338;2023-04-25T10:36:26;13.10;;;3.02;;
26516;SDS011;14190;51.342;6.338;2023-04-25T10:38:58;7.75;;;2.80;;
26516;SDS011;14190;51.342;6.338;2023-04-25T10:41:27;10.95;;;2.85;;
26516;SDS011;14190;51.342;6.338;2023-04-25T10:43:59;13.25;;;2.77;;
26516;SDS011;14190;51.342;6.338;2023-04-25T10:46:29;10.90;;;3.00;;
26516;SDS011;14190;51.342;6.338;2023-04-25T10:48:58;15.65;;;2.77;;
26516;SDS011;14190;51.342;6.338;2023-04-25T10:51:26;18.25;;;3.17;;
26516;SDS011;14190;51.342;6.338;2023-04-25T10:53:58;10.43;;;2.55;;
26516;SDS011;14190;51.342;6.338;2023-04-25T10:56:27;14.85;;;2.65;;
26516;SDS011;14190;51.342;6.338;2023-04-25T11:01:37;17.70;;;3.10;;
26516;SDS011;14190;51.342;6.338;2023-04-25T11:04:05;14.05;;;2.42;;
26516;SDS011;14190;51.342;6.338;2023-04-25T11:09:08;10.58;;;2.62;;
26516;SDS011;14190;51.342;6.338;2023-04-25T11:11:33;9.20;;;2.70;;
26516;SDS011;14190;51.342;6.338;2023-04-25T11:14:02;6.40;;;2.67;;
26516;SDS011;14190;51.342;6.338;2023-04-25T11:16:29;12.58;;;3.10;;
26516;SDS011;14190;51.342;6.338;2023-04-25T11:18:58;9.90;;;2.75;;
26516;SDS011;14190;51.342;6.338;2023-04-25T11:21:26;10.72;;;2.15;;
26516;SDS011;14190;51.342;6.338;2023-04-25T11:23:54;3.42;;;1.77;;
26516;SDS011;14190;51.342;6.338;2023-04-25T11:26:24;8.70;;;1.55;;
26516;SDS011;14190;51.342;6.338;2023-04-25T11:28:55;4.72;;;1.70;;
26516;SDS011;14190;51.342;6.338;2023-04-25T11:31:21;5.53;;;1.32;;
26516;SDS011;14190;51.342;6.338;2023-04-25T11:33:48;6.87;;;1.90;;
26516;SDS011;14190;51.342;6.338;2023-04-25T11:36:16;6.12;;;1.77;;
26516;SDS011;14190;51.342;6.338;2023-04-25T11:38:43;8.30;;;1.72;;
26516;SDS011;14190;51.342;6.338;2023-04-25T11:41:11;5.30;;;1.65;;
26516;SDS011;14190;51.342;6.338;2023-04-25T11:43:38;10.80;;;2.02;;
26516;SDS011;14190;51.342;6.338;2023-04-25T11:46:06;8.85;;;2.00;;
26516;SDS011;14190;51.342;6.338;2023-04-25T11:48:40;6.17;;;2.12;;
26516;SDS011;14190;51.342;6.338;2023-04-25T11:51:08;5.53;;;2.10;;
26516;SDS011;14190;51.342;6.338;2023-04-25T11:53:35;6.22;;;1.75;;
26516;SDS011;14190;51.342;6.338;2023-04-25T11:56:08;3.70;;;1.42;;
26516;SDS011;14190;51.342;6.338;2023-04-25T11:58:32;4.28;;;1.85;;
26516;SDS011;14190;51.342;6.338;2023-04-25T12:00:59;5.62;;;1.52;;
26516;SDS011;14190;51.342;6.338;2023-04-25T12:03:29;3.67;;;1.50;;
26516;SDS011;14190;51.342;6.338;2023-04-25T12:06:01;5.67;;;1.80;;
26516;SDS011;14190;51.342;6.338;2023-04-25T12:08:26;6.35;;;1.50;;
26516;SDS011;14190;51.342;6.338;2023-04-25T12:10:54;5.92;;;1.05;;
26516;SDS011;14190;51.342;6.338;2023-04-25T12:13:22;5.33;;;1.47;;
26516;SDS011;14190;51.342;6.338;2023-04-25T12:15:50;8.25;;;2.22;;
26516;SDS011;14190;51.342;6.338;2023-04-25T12:18:22;11.15;;;1.92;;
26516;SDS011;14190;51.342;6.338;2023-04-25T12:20:49;8.38;;;2.85;;
26516;SDS011;14190;51.342;6.338;2023-04-25T12:23:16;10.13;;;2.20;;
26516;SDS011;14190;51.342;6.338;2023-04-25T12:25:44;5.10;;;1.75;;
26516;SDS011;14190;51.342;6.338;2023-04-25T12:28:17;5.35;;;1.55;;
26516;SDS011;14190;51.342;6.338;2023-04-25T12:31:03;4.85;;;1.40;;
26516;SDS011;14190;51.342;6.338;2023-04-25T12:35:57;7.47;;;1.47;;
26516;SDS011;14190;51.342;6.338;2023-04-25T12:38:25;5.00;;;1.62;;
26516;SDS011;14190;51.342;6.338;2023-04-25T12:40:53;5.03;;;1.70;;
26516;SDS011;14190;51.342;6.338;2023-04-25T12:43:21;5.70;;;1.70;;
26516;SDS011;14190;51.342;6.338;2023-04-25T12:45:49;3.87;;;1.50;;
26516;SDS011;14190;51.342;6.338;2023-04-25T12:48:17;5.08;;;1.52;;
26516;SDS011;14190;51.342;6.338;2023-04-25T12:50:45;4.12;;;1.55;;
26516;SDS011;14190;51.342;6.338;2023-04-25T12:53:15;5.15;;;1.70;;
26516;SDS011;14190;51.342;6.338;2023-04-25T12:55:42;7.87;;;2.33;;
26516;SDS011;14190;51.342;6.338;2023-04-25T12:58:12;8.90;;;2.40;;
26516;SDS011;14190;51.342;6.338;2023-04-25T13:00:39;10.05;;;1.95;;
26516;SDS011;14190;51.342;6.338;2023-04-25T13:03:07;11.10;;;2.35;;
26516;SDS011;14190;51.342;6.338;2023-04-25T13:05:35;12.00;;;2.42;;
26516;SDS011;14190;51.342;6.338;2023-04-25T13:08:02;7.87;;;2.27;;
26516;SDS011;14190;51.342;6.338;2023-04-25T13:10:30;8.53;;;2.50;;
26516;SDS011;14190;51.342;6.338;2023-04-25T13:13:00;6.87;;;1.87;;
26516;SDS011;14190;51.342;6.338;2023-04-25T13:15:27;12.98;;;2.55;;
26516;SDS011;14190;51.342;6.338;2023-04-25T13:17:55;10.48;;;2.55;;
26516;SDS011;14190;51.342;6.338;2023-04-25T13:20:22;9.95;;;2.60;;
26516;SDS011;14190;51.342;6.338;2023-04-25T13:22:50;9.33;;;2.70;;
26516;SDS011;14190;51.342;6.338;2023-04-25T13:25:17;8.08;;;1.95;;
26516;SDS011;14190;51.342;6.338;2023-04-25T13:27:45;10.30;;;2.60;;
26516;SDS011;14190;51.342;6.338;2023-04-25T13:30:12;5.78;;;1.95;;
26516;SDS011;14190;51.342;6.338;2023-04-25T13:32:40;10.25;;;2.77;;
26516;SDS011;14190;51.342;6.338;2023-04-25T13:35:08;11.53;;;2.37;;
26516;SDS011;14190;51.342;6.338;2023-04-25T13:37:36;6.80;;;1.80;;
26516;SDS011;14190;51.342;6.338;2023-04-25T13:40:05;7.30;;;2.40;;
26516;SDS011;14190;51.342;6.338;2023-04-25T13:42:32;7.83;;;1.95;;
26516;SDS011;14190;51.342;6.338;2023-04-25T13:45:00;6.42;;;1.98;;
26516;SDS011;14190;51.342;6.338;2023-04-25T13:47:27;9.75;;;2.17;;
26516;SDS011;14190;51.342;6.338;2023-04-25T13:49:54;4.92;;;1.85;;
26516;SDS011;14190;51.342;6.338;2023-04-25T13:52:22;10.93;;;2.67;;
26516;SDS011;14190;51.342;6.338;2023-04-25T13:54:50;5.60;;;2.05;;
26516;SDS011;14190;51.342;6.338;2023-04-25T13:57:18;10.40;;;2.52;;
26516;SDS011;14190;51.342;6.338;2023-04-25T13:59:45;8.75;;;2.15;;
26516;SDS011;14190;51.342;6.338;2023-04-25T14:02:13;6.67;;;1.57;;
26516;SDS011;14190;51.342;6.338;2023-04-25T14:04:40;8.83;;;2.15;;
26516;SDS011;14190;51.342;6.338;2023-04-25T14:07:07;5.80;;;2.42;;
26516;SDS011;14190;51.342;6.338;2023-04-25T14:09:35;4.30;;;2.02;;
26516;SDS011;14190;51.342;6.338;2023-04-25T14:12:02;8.10;;;2.20;;
26516;SDS011;14190;51.342;6.338;2023-04-25T14:14:30;4.78;;;1.75;;
26516;SDS011;14190;51.342;6.338;2023-04-25T14:16:57;6.33;;;2.05;;
26516;SDS011;14190;51.342;6.338;2023-04-25T14:19:24;4.17;;;1.70;;
26516;SDS011;14190;51.342;6.338;2023-04-25T14:21:52;7.80;;;1.95;;
26516;SDS011;14190;51.342;6.338;2023-04-25T14:24:19;5.12;;;1.55;;
26516;SDS011;14190;51.342;6.338;2023-04-25T14:26:47;9.10;;;1.75;;
26516;SDS011;14190;51.342;6.338;2023-04-25T14:29:14;5.85;;;1.42;;
26516;SDS011;14190;51.342;6.338;2023-04-25T14:31:41;6.03;;;1.50;;
26516;SDS011;14190;51.342;6.338;2023-04-25T14:34:09;4.12;;;1.77;;
26516;SDS011;14190;51.342;6.338;2023-04-25T14:36:36;13.20;;;2.65;;
26516;SDS011;14190;51.342;6.338;2023-04-25T14:39:04;5.28;;;1.77;;
26516;SDS011;14190;51.342;6.338;2023-04-25T14:41:35;8.03;;;2.72;;
26516;SDS011;14190;51.342;6.338;2023-04-25T14:44:02;11.12;;;2.50;;
26516;SDS011;14190;51.342;6.338;2023-04-25T14:46:29;15.00;;;2.22;;
26516;SDS011;14190;51.342;6.338;2023-04-25T14:48:57;5.30;;;1.57;;
26516;SDS011;14190;51.342;6.338;2023-04-25T14:51:24;9.58;;;1.50;;
26516;SDS011;14190;51.342;6.338;2023-04-25T14:53:52;6.35;;;2.00;;
26516;SDS011;14190;51.342;6.338;2023-04-25T14:56:20;6.12;;;2.10;;
26516;SDS011;14190;51.342;6.338;2023-04-25T14:58:47;7.95;;;2.52;;